sensor_id;sensor_type;location;lat;lon;timestamp;pressure;altitude;pressure_sealevel;temperature;humidity
9129;BME280;4599;50.906;6.786;2023-03-04T00:00:43;15527.44;;;-142.83;81.58
9129;BME280;4599;50.906;6.786;2023-03-04T00:04:46;15525.41;;;-142.83;81.68
9129;BME280;4599;50.906;6.786;2023-03-04T00:08:47;15535.63;;;-142.83;81.58
9129;BME280;4599;50.906;6.786;2023-03-04T00:12:48;15531.53;;;-142.83;82.25
9129;BME280;4599;50.906;6.786;2023-03-04T00:16:50;15504.94;;;-142.83;82.52
9129;BME280;4599;50.906;6.786;2023-03-04T00:20:52;15515.16;;;-142.83;82.35
9129;BME280;4599;50.906;6.786;2023-03-04T00:24:54;15509.03;;;-142.83;82.89
9129;BME280;4599;50.906;6.786;2023-03-04T00:28:55;15517.22;;;-142.83;82.87
9129;BME280;4599;50.906;6.786;2023-03-04T00:32:57;15531.53;;;-142.83;83.25
9129;BME280;4599;50.906;6.786;2023-03-04T00:36:59;15498.81;;;-142.83;83.18
9129;BME280;4599;50.906;6.786;2023-03-04T00:41:01;15507.00;;;-142.83;83.55
9129;BME280;4599;50.906;6.786;2023-03-04T00:45:03;15468.16;;;-142.83;83.43
9129;BME280;4599;50.906;6.786;2023-03-04T00:49:05;15511.09;;;-142.83;83.27
9129;BME280;4599;50.906;6.786;2023-03-04T00:53:08;15482.47;;;-142.83;82.40
9129;BME280;4599;50.906;6.786;2023-03-04T00:57:09;15513.13;;;-142.83;83.31
9129;BME280;4599;50.906;6.786;2023-03-04T01:01:10;15523.34;;;-142.83;82.66
9129;BME280;4599;50.906;6.786;2023-03-04T01:05:12;15515.16;;;-142.83;82.59
9129;BME280;4599;50.906;6.786;2023-03-04T01:09:15;15507.00;;;-142.83;82.14
9129;BME280;4599;50.906;6.786;2023-03-04T01:13:17;15517.22;;;-142.83;82.43
9129;BME280;4599;50.906;6.786;2023-03-04T01:17:18;15521.31;;;-142.83;81.91
9129;BME280;4599;50.906;6.786;2023-03-04T01:21:20;15525.41;;;-142.83;81.36
9129;BME280;4599;50.906;6.786;2023-03-04T01:25:22;15496.78;;;-142.83;82.24
9129;BME280;4599;50.906;6.786;2023-03-04T01:29:24;15537.66;;;-142.83;82.05
9129;BME280;4599;50.906;6.786;2023-03-04T01:33:25;15523.34;;;-142.83;82.10
9129;BME280;4599;50.906;6.786;2023-03-04T01:37:29;15507.00;;;-142.83;82.08
9129;BME280;4599;50.906;6.786;2023-03-04T01:41:32;15511.09;;;-142.83;82.40
9129;BME280;4599;50.906;6.786;2023-03-04T01:45:34;15490.63;;;-142.83;81.33
9129;BME280;4599;50.906;6.786;2023-03-04T01:49:36;15509.03;;;-142.83;81.81
9129;BME280;4599;50.906;6.786;2023-03-04T01:53:37;15523.34;;;-142.83;83.18
9129;BME280;4599;50.906;6.786;2023-03-04T01:57:40;15507.00;;;-142.83;82.80
9129;BME280;4599;50.906;6.786;2023-03-04T02:01:44;15502.91;;;-142.83;82.65
9129;BME280;4599;50.906;6.786;2023-03-04T02:05:48;15507.00;;;-142.83;81.70
9129;BME280;4599;50.906;6.786;2023-03-04T02:09:50;15494.72;;;-142.83;82.25
9129;BME280;4599;50.906;6.786;2023-03-04T02:13:53;15492.69;;;-142.83;81.89
9129;BME280;4599;50.906;6.786;2023-03-04T02:17:54;15498.81;;;-142.83;82.29
9129;BME280;4599;50.906;6.786;2023-03-04T02:21:56;15496.78;;;-142.83;81.90
9129;BME280;4599;50.906;6.786;2023-03-04T02:26:12;15482.47;;;-142.83;81.80
9129;BME280;4599;50.906;6.786;2023-03-04T02:30:20;15533.56;;;-142.83;81.15
9129;BME280;4599;50.906;6.786;2023-03-04T02:34:23;15478.38;;;-142.83;82.23
9129;BME280;4599;50.906;6.786;2023-03-04T02:38:26;15504.94;;;-142.83;81.77
9129;BME280;4599;50.906;6.786;2023-03-04T02:42:28;15500.84;;;-142.83;81.91
9129;BME280;4599;50.906;6.786;2023-03-04T02:46:30;15533.56;;;-142.83;81.23
9129;BME280;4599;50.906;6.786;2023-03-04T02:50:35;15490.63;;;-142.83;82.14
9129;BME280;4599;50.906;6.786;2023-03-04T02:54:37;15509.03;;;-142.83;81.72
9129;BME280;4599;50.906;6.786;2023-03-04T02:58:40;15515.16;;;-142.83;82.36
9129;BME280;4599;50.906;6.786;2023-03-04T03:02:41;15494.72;;;-142.83;81.89
9129;BME280;4599;50.906;6.786;2023-03-04T03:06:43;15507.00;;;-142.83;82.12
9129;BME280;4599;50.906;6.786;2023-03-04T03:10:44;15472.25;;;-142.83;82.26
9129;BME280;4599;50.906;6.786;2023-03-04T03:14:47;15498.81;;;-142.83;81.82
9129;BME280;4599;50.906;6.786;2023-03-04T03:18:48;15498.81;;;-142.83;82.36
9129;BME280;4599;50.906;6.786;2023-03-04T03:22:50;15507.00;;;-142.83;82.59
9129;BME280;4599;50.906;6.786;2023-03-04T03:26:51;15494.72;;;-142.83;82.93
9129;BME280;4599;50.906;6.786;2023-03-04T03:30:54;15474.28;;;-142.83;82.94
9129;BME280;4599;50.906;6.786;2023-03-04T03:34:56;15494.72;;;-142.83;83.08
9129;BME280;4599;50.906;6.786;2023-03-04T03:38:57;15509.03;;;-142.83;82.92
9129;BME280;4599;50.906;6.786;2023-03-04T03:42:59;15468.16;;;-142.83;82.68
9129;BME280;4599;50.906;6.786;2023-03-04T03:47:02;15500.84;;;-142.83;82.79
9129;BME280;4599;50.906;6.786;2023-03-04T03:51:04;15466.09;;;-142.83;82.45
9129;BME280;4599;50.906;6.786;2023-03-04T03:55:06;15490.63;;;-142.83;82.82
9129;BME280;4599;50.906;6.786;2023-03-04T03:59:07;15507.00;;;-142.83;83.07
9129;BME280;4599;50.906;6.786;2023-03-04T04:03:13;15511.09;;;-142.83;82.40
9129;BME280;4599;50.906;6.786;2023-03-04T04:07:14;15515.16;;;-142.83;82.35
9129;BME280;4599;50.906;6.786;2023-03-04T04:11:16;15466.09;;;-142.83;82.56
9129;BME280;4599;50.906;6.786;2023-03-04T04:15:17;15472.25;;;-142.83;82.78
9129;BME280;4599;50.906;6.786;2023-03-04T04:19:20;15482.47;;;-142.83;82.73
9129;BME280;4599;50.906;6.786;2023-03-04T04:23:24;15484.50;;;-142.83;82.78
9129;BME280;4599;50.906;6.786;2023-03-04T04:27:26;15511.09;;;-142.83;83.42
9129;BME280;4599;50.906;6.786;2023-03-04T04:31:28;15482.47;;;-142.83;82.77
9129;BME280;4599;50.906;6.786;2023-03-04T04:35:30;15490.63;;;-142.83;83.33
9129;BME280;4599;50.906;6.786;2023-03-04T04:39:32;15464.06;;;-142.83;82.67
9129;BME280;4599;50.906;6.786;2023-03-04T04:43:34;15492.69;;;-142.83;83.55
9129;BME280;4599;50.906;6.786;2023-03-04T04:47:35;15468.16;;;-142.83;83.36
9129;BME280;4599;50.906;6.786;2023-03-04T04:51:38;15466.09;;;-142.83;82.89
9129;BME280;4599;50.906;6.786;2023-03-04T04:55:40;15480.41;;;-142.83;82.38
9129;BME280;4599;50.906;6.786;2023-03-04T04:59:41;15451.78;;;-142.83;81.82
9129;BME280;4599;50.906;6.786;2023-03-04T05:03:42;15478.38;;;-142.83;81.96
9129;BME280;4599;50.906;6.786;2023-03-04T05:07:45;15472.25;;;-142.83;81.39
9129;BME280;4599;50.906;6.786;2023-03-04T05:11:47;15496.78;;;-142.83;80.57
9129;BME280;4599;50.906;6.786;2023-03-04T05:15:50;15486.53;;;-142.83;80.41
9129;BME280;4599;50.906;6.786;2023-03-04T05:19:51;15478.38;;;-142.83;80.12
9129;BME280;4599;50.906;6.786;2023-03-04T05:23:55;15482.47;;;-142.83;80.07
9129;BME280;4599;50.906;6.786;2023-03-04T05:27:56;15519.25;;;-142.83;80.36
9129;BME280;4599;50.906;6.786;2023-03-04T05:31:57;15490.63;;;-142.83;80.55
9129;BME280;4599;50.906;6.786;2023-03-04T05:36:00;15492.69;;;-142.83;80.74
9129;BME280;4599;50.906;6.786;2023-03-04T05:40:04;15447.69;;;-142.83;81.46
9129;BME280;4599;50.906;6.786;2023-03-04T05:44:06;15513.13;;;-142.83;79.38
9129;BME280;4599;50.906;6.786;2023-03-04T05:48:07;15494.72;;;-142.83;80.16
9129;BME280;4599;50.906;6.786;2023-03-04T05:52:09;15498.81;;;-142.83;79.04
9129;BME280;4599;50.906;6.786;2023-03-04T05:56:14;15500.84;;;-142.83;78.58
9129;BME280;4599;50.906;6.786;2023-03-04T06:00:16;15509.03;;;-142.83;78.95
9129;BME280;4599;50.906;6.786;2023-03-04T06:04:18;15502.91;;;-142.83;78.33
9129;BME280;4599;50.906;6.786;2023-03-04T06:08:19;15519.25;;;-142.83;78.67
9129;BME280;4599;50.906;6.786;2023-03-04T06:12:22;15480.41;;;-142.83;78.59
9129;BME280;4599;50.906;6.786;2023-03-04T06:16:24;15496.78;;;-142.83;78.10
9129;BME280;4599;50.906;6.786;2023-03-04T06:20:26;15486.53;;;-142.83;78.12
9129;BME280;4599;50.906;6.786;2023-03-04T06:24:27;15494.72;;;-142.83;78.14
9129;BME280;4599;50.906;6.786;2023-03-04T06:28:30;15472.25;;;-142.83;78.36
9129;BME280;4599;50.906;6.786;2023-03-04T06:32:31;15515.16;;;-142.83;76.00
9129;BME280;4599;50.906;6.786;2023-03-04T06:36:33;15531.53;;;-142.83;75.16
9129;BME280;4599;50.906;6.786;2023-03-04T06:40:34;15535.63;;;-142.83;75.68
9129;BME280;4599;50.906;6.786;2023-03-04T06:44:37;15457.94;;;-142.83;76.05
9129;BME280;4599;50.906;6.786;2023-03-04T06:48:38;15504.94;;;-142.83;76.73
9129;BME280;4599;50.906;6.786;2023-03-04T06:52:40;15492.69;;;-142.83;76.48
9129;BME280;4599;50.906;6.786;2023-03-04T06:56:42;15511.09;;;-142.83;75.70
9129;BME280;4599;50.906;6.786;2023-03-04T07:00:44;15507.00;;;-142.83;74.96
9129;BME280;4599;50.906;6.786;2023-03-04T07:04:46;15517.22;;;-142.83;75.09
9129;BME280;4599;50.906;6.786;2023-03-04T07:08:48;15521.31;;;-142.83;74.28
9129;BME280;4599;50.906;6.786;2023-03-04T07:12:51;15509.03;;;-142.83;74.71
9129;BME280;4599;50.906;6.786;2023-03-04T07:16:54;15496.78;;;-142.83;74.79
9129;BME280;4599;50.906;6.786;2023-03-04T07:20:55;15519.25;;;-142.83;74.28
9129;BME280;4599;50.906;6.786;2023-03-04T07:24:57;15521.31;;;-142.83;73.59
9129;BME280;4599;50.906;6.786;2023-03-04T07:28:59;15541.75;;;-142.83;73.26
9129;BME280;4599;50.906;6.786;2023-03-04T07:33:02;15513.13;;;-142.83;73.96
9129;BME280;4599;50.906;6.786;2023-03-04T07:37:04;15543.78;;;-142.83;73.49
9129;BME280;4599;50.906;6.786;2023-03-04T07:41:05;15541.75;;;-142.83;72.64
9129;BME280;4599;50.906;6.786;2023-03-04T07:45:09;15541.75;;;-142.83;72.71
9129;BME280;4599;50.906;6.786;2023-03-04T07:49:12;15525.41;;;-142.83;72.93
9129;BME280;4599;50.906;6.786;2023-03-04T07:53:14;15527.44;;;-142.83;73.63
9129;BME280;4599;50.906;6.786;2023-03-04T07:57:16;15539.69;;;-142.83;73.06
9129;BME280;4599;50.906;6.786;2023-03-04T08:01:20;15564.25;;;-142.83;72.87
9129;BME280;4599;50.906;6.786;2023-03-04T08:05:23;15551.97;;;-142.83;72.31
9129;BME280;4599;50.906;6.786;2023-03-04T08:09:25;15539.69;;;-142.83;72.61
9129;BME280;4599;50.906;6.786;2023-03-04T08:13:26;15519.25;;;-142.83;73.16
9129;BME280;4599;50.906;6.786;2023-03-04T08:17:27;15574.47;;;-142.83;72.19
9129;BME280;4599;50.906;6.786;2023-03-04T08:21:31;15566.28;;;-142.83;72.30
9129;BME280;4599;50.906;6.786;2023-03-04T08:25:32;15543.78;;;-142.83;72.33
9129;BME280;4599;50.906;6.786;2023-03-04T08:29:34;15560.16;;;-142.83;71.80
9129;BME280;4599;50.906;6.786;2023-03-04T08:33:35;15543.78;;;-142.83;71.76
9129;BME280;4599;50.906;6.786;2023-03-04T08:37:38;15545.84;;;-142.83;72.21
9129;BME280;4599;50.906;6.786;2023-03-04T08:41:39;15509.03;;;-142.83;73.52
9129;BME280;4599;50.906;6.786;2023-03-04T08:45:41;15551.97;;;-142.83;74.29
9129;BME280;4599;50.906;6.786;2023-03-04T08:49:43;15562.19;;;-142.83;73.27
9129;BME280;4599;50.906;6.786;2023-03-04T08:53:46;15554.00;;;-142.83;72.17
9129;BME280;4599;50.906;6.786;2023-03-04T08:57:47;15560.16;;;-142.83;71.98
9129;BME280;4599;50.906;6.786;2023-03-04T09:01:49;15515.16;;;-142.83;73.14
9129;BME280;4599;50.906;6.786;2023-03-04T09:05:50;15551.97;;;-142.83;72.80
9129;BME280;4599;50.906;6.786;2023-03-04T09:09:53;15527.44;;;-142.83;72.77
9129;BME280;4599;50.906;6.786;2023-03-04T09:13:54;15590.81;;;-142.83;71.67
9129;BME280;4599;50.906;6.786;2023-03-04T09:17:56;15605.13;;;-142.83;70.93
9129;BME280;4599;50.906;6.786;2023-03-04T09:21:57;15580.59;;;-142.83;68.77
9129;BME280;4599;50.906;6.786;2023-03-04T09:26:01;15619.44;;;-142.83;69.14
9129;BME280;4599;50.906;6.786;2023-03-04T09:30:02;15633.75;;;-142.83;68.32
9129;BME280;4599;50.906;6.786;2023-03-04T09:34:04;15631.72;;;-142.83;67.41
9129;BME280;4599;50.906;6.786;2023-03-04T09:38:05;15609.22;;;-142.83;67.28
9129;BME280;4599;50.906;6.786;2023-03-04T09:42:15;15588.78;;;-142.83;68.17
9129;BME280;4599;50.906;6.786;2023-03-04T09:46:28;15611.25;;;-142.83;68.91
9129;BME280;4599;50.906;6.786;2023-03-04T09:50:32;15572.41;;;-142.83;68.50
9129;BME280;4599;50.906;6.786;2023-03-04T09:54:55;15582.63;;;-142.83;68.26
9129;BME280;4599;50.906;6.786;2023-03-04T09:59:11;15588.78;;;-142.83;69.01
9129;BME280;4599;50.906;6.786;2023-03-04T10:03:17;15568.31;;;-142.83;70.87
9129;BME280;4599;50.906;6.786;2023-03-04T10:07:23;15588.78;;;-142.83;71.31
9129;BME280;4599;50.906;6.786;2023-03-04T10:11:29;15572.41;;;-142.83;72.16
9129;BME280;4599;50.906;6.786;2023-03-04T10:15:35;15543.78;;;-142.83;71.87
9129;BME280;4599;50.906;6.786;2023-03-04T10:19:53;15572.41;;;-142.83;71.32
9129;BME280;4599;50.906;6.786;2023-03-04T10:23:55;15543.78;;;-142.83;72.50
9129;BME280;4599;50.906;6.786;2023-03-04T10:28:02;15549.94;;;-142.83;72.83
9129;BME280;4599;50.906;6.786;2023-03-04T10:32:08;15533.56;;;-142.83;72.78
9129;BME280;4599;50.906;6.786;2023-03-04T10:36:25;15504.94;;;-142.83;73.76
9129;BME280;4599;50.906;6.786;2023-03-04T10:40:36;15558.09;;;-142.83;73.06
9129;BME280;4599;50.906;6.786;2023-03-04T10:44:41;15562.19;;;-142.83;71.48
9129;BME280;4599;50.906;6.786;2023-03-04T10:48:44;15556.06;;;-142.83;72.42
9129;BME280;4599;50.906;6.786;2023-03-04T10:52:48;15562.19;;;-142.83;72.18
9129;BME280;4599;50.906;6.786;2023-03-04T10:56:56;15564.25;;;-142.83;70.81
9129;BME280;4599;50.906;6.786;2023-03-04T11:01:01;15592.84;;;-142.83;69.39
9129;BME280;4599;50.906;6.786;2023-03-04T11:05:16;15603.09;;;-142.83;69.45
9129;BME280;4599;50.906;6.786;2023-03-04T11:09:22;15599.00;;;-142.83;70.50
9129;BME280;4599;50.906;6.786;2023-03-04T11:13:25;15568.31;;;-142.83;69.21
9129;BME280;4599;50.906;6.786;2023-03-04T11:17:28;15592.84;;;-142.83;69.24
9129;BME280;4599;50.906;6.786;2023-03-04T11:21:36;15603.09;;;-142.83;69.52
9129;BME280;4599;50.906;6.786;2023-03-04T11:25:43;15564.25;;;-142.83;69.85
9129;BME280;4599;50.906;6.786;2023-03-04T11:29:47;15590.81;;;-142.83;68.55
9129;BME280;4599;50.906;6.786;2023-03-04T11:33:55;15562.19;;;-142.83;67.87
9129;BME280;4599;50.906;6.786;2023-03-04T11:38:03;15592.84;;;-142.83;68.57
9129;BME280;4599;50.906;6.786;2023-03-04T11:42:12;15578.56;;;-142.83;69.30
9129;BME280;4599;50.906;6.786;2023-03-04T11:46:48;15551.97;;;-142.83;69.07
9129;BME280;4599;50.906;6.786;2023-03-04T11:50:56;15562.19;;;-142.83;68.26
9129;BME280;4599;50.906;6.786;2023-03-04T11:55:11;15547.88;;;-142.83;70.15
9129;BME280;4599;50.906;6.786;2023-03-04T11:59:32;15605.13;;;-142.83;69.18
9129;BME280;4599;50.906;6.786;2023-03-04T12:03:56;15584.69;;;-142.83;68.17
9129;BME280;4599;50.906;6.786;2023-03-04T12:08:22;15615.34;;;-142.83;68.62
9129;BME280;4599;50.906;6.786;2023-03-04T12:12:49;15576.50;;;-142.83;67.72
9129;BME280;4599;50.906;6.786;2023-03-04T12:17:19;15570.38;;;-142.83;67.48
9129;BME280;4599;50.906;6.786;2023-03-04T12:21:38;15568.31;;;-142.83;68.67
9129;BME280;4599;50.906;6.786;2023-03-04T12:25:47;15586.72;;;-142.83;68.73
9129;BME280;4599;50.906;6.786;2023-03-04T12:29:58;15607.16;;;-142.83;67.15
9129;BME280;4599;50.906;6.786;2023-03-04T12:34:13;15646.03;;;-142.83;65.93
9129;BME280;4599;50.906;6.786;2023-03-04T12:38:29;15605.13;;;-142.83;66.27
9129;BME280;4599;50.906;6.786;2023-03-04T12:42:42;15545.84;;;-142.83;66.28
9129;BME280;4599;50.906;6.786;2023-03-04T12:47:06;15629.66;;;-142.83;67.10
9129;BME280;4599;50.906;6.786;2023-03-04T12:51:18;15568.31;;;-142.83;67.26
9129;BME280;4599;50.906;6.786;2023-03-04T12:55:35;15617.41;;;-142.83;66.89
9129;BME280;4599;50.906;6.786;2023-03-04T12:59:42;15588.78;;;-142.83;66.54
9129;BME280;4599;50.906;6.786;2023-03-04T13:03:58;15619.44;;;-142.83;67.65
9129;BME280;4599;50.906;6.786;2023-03-04T13:08:09;15613.31;;;-142.83;66.78
9129;BME280;4599;50.906;6.786;2023-03-04T13:12:16;15623.53;;;-142.83;67.27
9129;BME280;4599;50.906;6.786;2023-03-04T13:16:29;15615.34;;;-142.83;66.68
9129;BME280;4599;50.906;6.786;2023-03-04T13:20:38;15592.84;;;-142.83;67.12
9129;BME280;4599;50.906;6.786;2023-03-04T13:24:44;15609.22;;;-142.83;67.15
9129;BME280;4599;50.906;6.786;2023-03-04T13:28:52;15609.22;;;-142.83;67.67
9129;BME280;4599;50.906;6.786;2023-03-04T13:32:53;15596.94;;;-142.83;67.19
9129;BME280;4599;50.906;6.786;2023-03-04T13:36:57;15605.13;;;-142.83;67.29
9129;BME280;4599;50.906;6.786;2023-03-04T13:41:19;15558.09;;;-142.83;68.20
9129;BME280;4599;50.906;6.786;2023-03-04T13:45:30;15580.59;;;-142.83;68.66
9129;BME280;4599;50.906;6.786;2023-03-04T13:49:32;15572.41;;;-142.83;68.86
9129;BME280;4599;50.906;6.786;2023-03-04T13:53:42;15578.56;;;-142.83;69.38
9129;BME280;4599;50.906;6.786;2023-03-04T13:57:47;15545.84;;;-142.83;68.82
9129;BME280;4599;50.906;6.786;2023-03-04T14:01:54;15556.06;;;-142.83;69.37
9129;BME280;4599;50.906;6.786;2023-03-04T14:06:10;15515.16;;;-142.83;69.18
9129;BME280;4599;50.906;6.786;2023-03-04T14:10:22;15560.16;;;-142.83;69.48
9129;BME280;4599;50.906;6.786;2023-03-04T14:14:26;15556.06;;;-142.83;69.57
9129;BME280;4599;50.906;6.786;2023-03-04T14:18:28;15502.91;;;-142.83;70.11
9129;BME280;4599;50.906;6.786;2023-03-04T14:22:32;15539.69;;;-142.83;69.78
9129;BME280;4599;50.906;6.786;2023-03-04T14:26:35;15531.53;;;-142.83;70.40
9129;BME280;4599;50.906;6.786;2023-03-04T14:30:39;15519.25;;;-142.83;70.00
9129;BME280;4599;50.906;6.786;2023-03-04T14:34:48;15547.88;;;-142.83;71.06
9129;BME280;4599;50.906;6.786;2023-03-04T14:38:52;15502.91;;;-142.83;70.68
9129;BME280;4599;50.906;6.786;2023-03-04T14:42:59;15507.00;;;-142.83;71.11
9129;BME280;4599;50.906;6.786;2023-03-04T14:47:08;15513.13;;;-142.83;71.89
9129;BME280;4599;50.906;6.786;2023-03-04T14:51:28;15523.34;;;-142.83;71.34
9129;BME280;4599;50.906;6.786;2023-03-04T14:55:29;15564.25;;;-142.83;71.64
9129;BME280;4599;50.906;6.786;2023-03-04T14:59:34;15478.38;;;-142.83;72.29
9129;BME280;4599;50.906;6.786;2023-03-04T15:03:36;15502.91;;;-142.83;72.43
9129;BME280;4599;50.906;6.786;2023-03-04T15:07:38;15509.03;;;-142.83;72.15
9129;BME280;4599;50.906;6.786;2023-03-04T15:11:45;15507.00;;;-142.83;71.90
9129;BME280;4599;50.906;6.786;2023-03-04T15:15:59;15545.84;;;-142.83;71.66
9129;BME280;4599;50.906;6.786;2023-03-04T15:20:18;15509.03;;;-142.83;71.40
9129;BME280;4599;50.906;6.786;2023-03-04T15:24:21;15517.22;;;-142.83;71.67
9129;BME280;4599;50.906;6.786;2023-03-04T15:28:24;15511.09;;;-142.83;72.72
9129;BME280;4599;50.906;6.786;2023-03-04T15:32:28;15492.69;;;-142.83;72.23
9129;BME280;4599;50.906;6.786;2023-03-04T15:36:30;15488.59;;;-142.83;73.74
9129;BME280;4599;50.906;6.786;2023-03-04T15:40:34;15488.59;;;-142.83;74.01
9129;BME280;4599;50.906;6.786;2023-03-04T15:44:36;15462.00;;;-142.83;74.43
9129;BME280;4599;50.906;6.786;2023-03-04T15:48:39;15462.00;;;-142.83;74.41
9129;BME280;4599;50.906;6.786;2023-03-04T15:52:40;15462.00;;;-142.83;76.47
9129;BME280;4599;50.906;6.786;2023-03-04T15:56:42;15423.16;;;-142.83;78.61
9129;BME280;4599;50.906;6.786;2023-03-04T16:00:44;15408.84;;;-142.83;79.67
9129;BME280;4599;50.906;6.786;2023-03-04T16:04:47;15400.69;;;-142.83;81.04
9129;BME280;4599;50.906;6.786;2023-03-04T16:08:50;15388.41;;;-142.83;81.45
9129;BME280;4599;50.906;6.786;2023-03-04T16:12:52;15394.56;;;-142.83;81.52
9129;BME280;4599;50.906;6.786;2023-03-04T16:16:53;15406.81;;;-142.83;81.09
9129;BME280;4599;50.906;6.786;2023-03-04T16:20:56;15412.94;;;-142.83;81.00
9129;BME280;4599;50.906;6.786;2023-03-04T16:24:59;15406.81;;;-142.83;80.81
9129;BME280;4599;50.906;6.786;2023-03-04T16:29:00;15404.78;;;-142.83;79.28
9129;BME280;4599;50.906;6.786;2023-03-04T16:33:02;15406.81;;;-142.83;80.13
9129;BME280;4599;50.906;6.786;2023-03-04T16:37:11;15406.81;;;-142.83;80.25
9129;BME280;4599;50.906;6.786;2023-03-04T16:41:15;15421.13;;;-142.83;79.22
9129;BME280;4599;50.906;6.786;2023-03-04T16:45:19;15388.41;;;-142.83;79.73
9129;BME280;4599;50.906;6.786;2023-03-04T16:49:21;15412.94;;;-142.83;80.11
9129;BME280;4599;50.906;6.786;2023-03-04T16:53:29;15388.41;;;-142.83;81.47
9129;BME280;4599;50.906;6.786;2023-03-04T16:57:32;15380.25;;;-142.83;81.92
9129;BME280;4599;50.906;6.786;2023-03-04T17:01:34;15378.19;;;-142.83;81.16
9129;BME280;4599;50.906;6.786;2023-03-04T17:05:37;15345.47;;;-142.83;83.17
9129;BME280;4599;50.906;6.786;2023-03-04T17:09:40;15355.72;;;-142.83;84.39
9129;BME280;4599;50.906;6.786;2023-03-04T17:13:42;15367.97;;;-142.83;84.64
9129;BME280;4599;50.906;6.786;2023-03-04T17:17:44;15337.31;;;-142.83;85.11
9129;BME280;4599;50.906;6.786;2023-03-04T17:21:46;15327.09;;;-142.83;84.69
9129;BME280;4599;50.906;6.786;2023-03-04T17:25:55;15337.31;;;-142.83;85.23
9129;BME280;4599;50.906;6.786;2023-03-04T17:29:56;15323.00;;;-142.83;85.71
9129;BME280;4599;50.906;6.786;2023-03-04T17:33:58;15339.34;;;-142.83;85.61
9129;BME280;4599;50.906;6.786;2023-03-04T17:38:01;15351.63;;;-142.83;85.42
9129;BME280;4599;50.906;6.786;2023-03-04T17:42:05;15349.56;;;-142.83;85.26
9129;BME280;4599;50.906;6.786;2023-03-04T17:46:08;15357.75;;;-142.83;85.65
9129;BME280;4599;50.906;6.786;2023-03-04T17:50:11;15327.09;;;-142.83;85.04
9129;BME280;4599;50.906;6.786;2023-03-04T17:54:12;15314.81;;;-142.83;85.23
9129;BME280;4599;50.906;6.786;2023-03-04T17:58:16;15345.47;;;-142.83;85.01
9129;BME280;4599;50.906;6.786;2023-03-04T18:02:17;15333.22;;;-142.83;85.50
9129;BME280;4599;50.906;6.786;2023-03-04T18:06:19;15339.34;;;-142.83;85.04
9129;BME280;4599;50.906;6.786;2023-03-04T18:10:21;15363.88;;;-142.83;85.36
9129;BME280;4599;50.906;6.786;2023-03-04T18:14:23;15349.56;;;-142.83;84.95
9129;BME280;4599;50.906;6.786;2023-03-04T18:18:25;15386.38;;;-142.83;83.70
9129;BME280;4599;50.906;6.786;2023-03-04T18:22:28;15323.00;;;-142.83;82.94
9129;BME280;4599;50.906;6.786;2023-03-04T18:26:30;15329.13;;;-142.83;83.54
9129;BME280;4599;50.906;6.786;2023-03-04T18:30:33;15355.72;;;-142.83;82.22
9129;BME280;4599;50.906;6.786;2023-03-04T18:34:34;15380.25;;;-142.83;81.70
9129;BME280;4599;50.906;6.786;2023-03-04T18:38:36;15392.50;;;-142.83;80.88
9129;BME280;4599;50.906;6.786;2023-03-04T18:42:37;15398.63;;;-142.83;81.26
9129;BME280;4599;50.906;6.786;2023-03-04T18:46:43;15376.16;;;-142.83;80.86
9129;BME280;4599;50.906;6.786;2023-03-04T18:50:45;15384.31;;;-142.83;79.65
9129;BME280;4599;50.906;6.786;2023-03-04T18:54:46;15380.25;;;-142.83;79.62
9129;BME280;4599;50.906;6.786;2023-03-04T18:58:48;15412.94;;;-142.83;79.65
9129;BME280;4599;50.906;6.786;2023-03-04T19:02:55;15392.50;;;-142.83;79.22
9129;BME280;4599;50.906;6.786;2023-03-04T19:06:57;15392.50;;;-142.83;78.62
9129;BME280;4599;50.906;6.786;2023-03-04T19:10:58;15421.13;;;-142.83;77.85
9129;BME280;4599;50.906;6.786;2023-03-04T19:15:00;15435.44;;;-142.83;77.35
9129;BME280;4599;50.906;6.786;2023-03-04T19:19:03;15410.91;;;-142.83;76.97
9129;BME280;4599;50.906;6.786;2023-03-04T19:23:04;15406.81;;;-142.83;77.96
9129;BME280;4599;50.906;6.786;2023-03-04T19:27:06;15425.22;;;-142.83;76.56
9129;BME280;4599;50.906;6.786;2023-03-04T19:31:08;15439.53;;;-142.83;75.58
9129;BME280;4599;50.906;6.786;2023-03-04T19:35:11;15453.84;;;-142.83;74.73
9129;BME280;4599;50.906;6.786;2023-03-04T19:39:12;15445.66;;;-142.83;75.26
9129;BME280;4599;50.906;6.786;2023-03-04T19:43:14;15457.94;;;-142.83;74.47
9129;BME280;4599;50.906;6.786;2023-03-04T19:47:15;15478.38;;;-142.83;74.62
9129;BME280;4599;50.906;6.786;2023-03-04T19:51:20;15466.09;;;-142.83;73.40
9129;BME280;4599;50.906;6.786;2023-03-04T19:55:22;15478.38;;;-142.83;73.11
9129;BME280;4599;50.906;6.786;2023-03-04T19:59:24;15466.09;;;-142.83;73.47
9129;BME280;4599;50.906;6.786;2023-03-04T20:03:25;15421.13;;;-142.83;73.27
9129;BME280;4599;50.906;6.786;2023-03-04T20:07:28;15459.97;;;-142.83;72.40
9129;BME280;4599;50.906;6.786;2023-03-04T20:11:29;15470.19;;;-142.83;72.42
9129;BME280;4599;50.906;6.786;2023-03-04T20:15:31;15457.94;;;-142.83;72.47
9129;BME280;4599;50.906;6.786;2023-03-04T20:19:33;15486.53;;;-142.83;71.89
9129;BME280;4599;50.906;6.786;2023-03-04T20:23:37;15478.38;;;-142.83;72.54
9129;BME280;4599;50.906;6.786;2023-03-04T20:27:38;15476.31;;;-142.83;72.55
9129;BME280;4599;50.906;6.786;2023-03-04T20:31:40;15453.84;;;-142.83;73.11
9129;BME280;4599;50.906;6.786;2023-03-04T20:35:41;15492.69;;;-142.83;71.81
9129;BME280;4599;50.906;6.786;2023-03-04T20:39:44;15470.19;;;-142.83;71.76
9129;BME280;4599;50.906;6.786;2023-03-04T20:43:46;15504.94;;;-142.83;71.69
9129;BME280;4599;50.906;6.786;2023-03-04T20:47:47;15476.31;;;-142.83;72.08
9129;BME280;4599;50.906;6.786;2023-03-04T20:51:49;15488.59;;;-142.83;71.88
9129;BME280;4599;50.906;6.786;2023-03-04T20:55:52;15464.06;;;-142.83;71.37
9129;BME280;4599;50.906;6.786;2023-03-04T20:59:54;15470.19;;;-142.83;71.67
9129;BME280;4599;50.906;6.786;2023-03-04T21:03:57;15429.31;;;-142.83;72.25
9129;BME280;4599;50.906;6.786;2023-03-04T21:08:00;15433.41;;;-142.83;72.35
9129;BME280;4599;50.906;6.786;2023-03-04T21:12:03;15486.53;;;-142.83;72.57
9129;BME280;4599;50.906;6.786;2023-03-04T21:16:05;15445.66;;;-142.83;71.83
9129;BME280;4599;50.906;6.786;2023-03-04T21:20:12;15462.00;;;-142.83;72.62
9129;BME280;4599;50.906;6.786;2023-03-04T21:24:16;15459.97;;;-142.83;72.58
9129;BME280;4599;50.906;6.786;2023-03-04T21:28:19;15480.41;;;-142.83;72.17
9129;BME280;4599;50.906;6.786;2023-03-04T21:32:22;15480.41;;;-142.83;72.13